createdAt,value
2018-08-11T00:01:18.861Z,99405.92
2018-08-11T00:04:23.891Z,99409.35
2018-08-11T00:07:28.901Z,99404.50
2018-08-11T00:10:33.960Z,99401.60
2018-08-11T00:13:38.971Z,99407.50
2018-08-11T00:16:44.001Z,99401.89
2018-08-11T00:19:49.042Z,99402.09
2018-08-11T00:22:54.098Z,99408.69
2018-08-11T00:25:59.110Z,99401.27
2018-08-11T00:29:04.122Z,99399.02
2018-08-11T00:32:09.119Z,99399.02
2018-08-11T00:35:14.853Z,99399.27
2018-08-11T00:38:19.844Z,99393.80
2018-08-11T00:41:24.890Z,99399.32
2018-08-11T00:44:29.898Z,99391.06
2018-08-11T00:47:34.922Z,99397.79
2018-08-11T00:50:39.939Z,99396.55
2018-08-11T00:53:44.993Z,99401.44
2018-08-11T00:56:49.995Z,99397.05
2018-08-11T00:59:55.026Z,99397.59
2018-08-11T01:03:00.069Z,99397.88
2018-08-11T01:06:05.358Z,99395.37
2018-08-11T01:09:11.039Z,99389.86
2018-08-11T01:12:16.054Z,99391.13
2018-08-11T01:15:21.877Z,99382.71
2018-08-11T01:18:26.863Z,99381.63
2018-08-11T01:21:31.920Z,99387.19
2018-08-11T01:24:36.934Z,99376.08
2018-08-11T01:27:41.947Z,99380.07
2018-08-11T01:30:46.975Z,99375.58
2018-08-11T01:33:52.092Z,99371.06
2018-08-11T01:36:57.092Z,99370.45
2018-08-11T01:40:02.141Z,99372.53
2018-08-11T01:43:07.148Z,99374.41
2018-08-11T01:46:12.182Z,99373.20
2018-08-11T01:49:17.184Z,99370.21
2018-08-11T01:52:22.199Z,99373.20
2018-08-11T01:55:27.441Z,99370.42
2018-08-11T01:58:32.432Z,99370.90
2018-08-11T02:01:37.421Z,99368.59
2018-08-11T02:04:42.425Z,99367.75
2018-08-11T02:07:47.442Z,99370.70
2018-08-11T02:10:52.448Z,99373.72
2018-08-11T02:17:56.468Z,99375.30
2018-08-11T02:21:01.498Z,99371.14
2018-08-11T02:24:06.550Z,99373.28
2018-08-11T02:27:11.562Z,99379.94
2018-08-11T02:30:17.467Z,99379.61
2018-08-11T02:33:22.465Z,99384.78
2018-08-11T02:36:27.454Z,99382.23
2018-08-11T02:39:32.429Z,99379.45
2018-08-11T02:42:37.610Z,99380.05
2018-08-11T02:45:42.624Z,99374.73
2018-08-11T02:48:47.625Z,99373.84
2018-08-11T02:51:52.667Z,99375.28
2018-08-11T02:54:57.662Z,99374.01
2018-08-11T02:58:02.633Z,99374.61
2018-08-11T03:01:07.664Z,99375.50
2018-08-11T03:04:12.651Z,99376.61
2018-08-11T03:07:17.645Z,99374.02
2018-08-11T03:10:22.662Z,99373.03
2018-08-11T03:13:27.626Z,99369.96
2018-08-11T03:16:32.606Z,99375.92
2018-08-11T03:19:37.617Z,99374.52
2018-08-11T03:22:43.300Z,99374.71
2018-08-11T03:25:48.290Z,99376.59
2018-08-11T03:28:53.365Z,99385.13
2018-08-11T03:31:58.345Z,99388.45
2018-08-11T03:35:03.676Z,99382.89
2018-08-11T03:38:08.660Z,99387.95
2018-08-11T03:41:13.732Z,99388.76
2018-08-11T03:44:18.689Z,99391.85
2018-08-11T03:47:24.113Z,99398.03
2018-08-11T03:50:29.086Z,99398.84
2018-08-11T03:53:34.063Z,99390.09
2018-08-11T03:56:39.062Z,99403.69
2018-08-11T03:59:44.025Z,99406.17
2018-08-11T04:02:49.005Z,99412.12
2018-08-11T04:05:54.010Z,99403.06
2018-08-11T04:08:58.974Z,99415.80
2018-08-11T04:12:03.971Z,99415.60
2018-08-11T04:15:08.949Z,99411.81
2018-08-11T04:18:13.933Z,99413.79
2018-08-11T04:21:18.916Z,99412.50
2018-08-11T04:24:23.909Z,99415.60
2018-08-11T04:27:28.873Z,99415.70
2018-08-11T04:30:33.901Z,99402.02
2018-08-11T04:33:38.868Z,99403.78
2018-08-11T04:36:43.864Z,99410.09
2018-08-11T04:39:48.882Z,99401.66
2018-08-11T04:42:53.868Z,99400.97
2018-08-11T04:45:58.871Z,99409.24
2018-08-11T04:49:03.884Z,99411.63
2018-08-11T04:52:08.933Z,99415.03
2018-08-11T04:55:13.965Z,99411.85
2018-08-11T04:58:18.987Z,99414.33
2018-08-11T05:01:23.991Z,99423.03
2018-08-11T05:04:29.002Z,99414.97
2018-08-11T05:07:34.016Z,99427.80
2018-08-11T05:10:39.081Z,99429.50
2018-08-11T05:13:44.118Z,99429.80
2018-08-11T05:16:49.122Z,99432.69
2018-08-11T05:19:54.146Z,99433.06
2018-08-11T05:22:59.161Z,99442.42
2018-08-11T05:26:04.183Z,99446.30
2018-08-11T05:29:09.205Z,99445.17
2018-08-11T05:32:14.224Z,99449.64
2018-08-11T05:35:19.230Z,99445.77
2018-08-11T05:38:24.229Z,99452.34
2018-08-11T05:41:29.298Z,99457.67
2018-08-11T05:44:34.234Z,99458.45
2018-08-11T05:47:39.251Z,99462.30
2018-08-11T05:50:44.210Z,99455.89
2018-08-11T05:53:49.215Z,99461.44
2018-08-11T05:56:54.236Z,99470.91
2018-08-11T05:59:59.231Z,99470.57
2018-08-11T06:03:04.318Z,99475.01
2018-08-11T06:06:09.331Z,99471.45
2018-08-11T06:09:14.347Z,99474.80
2018-08-11T06:12:19.343Z,99476.44
2018-08-11T06:15:24.362Z,99482.19
2018-08-11T06:18:29.953Z,99492.71
2018-08-11T06:21:34.977Z,99496.13
2018-08-11T06:24:39.997Z,99497.63
2018-08-11T06:27:45.031Z,99498.83
2018-08-11T06:30:50.050Z,99498.28
2018-08-11T06:33:55.051Z,99484.55
2018-08-11T06:37:00.100Z,99479.41
2018-08-11T06:40:05.872Z,99482.45
2018-08-11T06:43:10.858Z,99479.64
2018-08-11T06:46:15.850Z,99480.41
2018-08-11T06:49:20.830Z,99487.86
2018-08-11T06:52:25.838Z,99476.67
2018-08-11T06:55:30.862Z,99478.89
2018-08-11T06:58:35.837Z,99478.20
2018-08-11T07:01:41.027Z,99469.48
2018-08-11T07:04:46.010Z,99471.89
2018-08-11T07:07:50.980Z,99475.55
2018-08-11T07:10:55.961Z,99469.50
2018-08-11T07:14:00.985Z,99467.67
2018-08-11T07:17:05.994Z,99468.64
2018-08-11T07:20:11.255Z,99476.48
2018-08-11T07:23:16.250Z,99481.99
2018-08-11T07:26:21.224Z,99485.24
2018-08-11T07:29:26.197Z,99478.02
2018-08-11T07:32:31.185Z,99477.27
2018-08-11T07:35:36.158Z,99482.45
2018-08-11T07:38:41.181Z,99478.92
2018-08-11T07:41:46.167Z,99485.55
2018-08-11T07:44:51.134Z,99486.02
2018-08-11T07:47:56.139Z,99484.78
2018-08-11T07:51:01.111Z,99489.91
2018-08-11T07:54:06.118Z,99495.19
2018-08-11T07:57:11.136Z,99490.00
2018-08-11T08:00:16.135Z,99492.33
2018-08-11T08:03:21.143Z,99489.08
2018-08-11T08:06:26.142Z,99486.66
2018-08-11T08:09:31.125Z,99481.41
2018-08-11T08:12:36.121Z,99472.86
2018-08-11T08:15:41.085Z,99475.08
2018-08-11T08:18:46.094Z,99470.86
2018-08-11T08:21:51.087Z,99478.19
2018-08-11T08:24:56.079Z,99476.97
2018-08-11T08:28:01.086Z,99484.18
2018-08-11T08:31:06.121Z,99486.97
2018-08-11T08:34:11.115Z,99476.59
2018-08-11T08:37:16.090Z,99479.59
2018-08-11T08:40:21.049Z,99491.23
2018-08-11T08:43:26.063Z,99492.77
2018-08-11T08:46:31.048Z,99487.84
2018-08-11T08:49:36.058Z,99494.11
2018-08-11T08:52:41.706Z,99485.73
2018-08-11T08:55:46.693Z,99487.32
2018-08-11T08:58:51.682Z,99476.03
2018-08-11T09:01:56.692Z,99475.23
2018-08-11T09:05:01.686Z,99480.02
2018-08-11T09:08:06.720Z,99473.74
2018-08-11T09:11:11.756Z,99478.85
2018-08-11T09:14:16.777Z,99483.97
2018-08-11T09:17:21.790Z,99480.91
2018-08-11T09:20:26.771Z,99484.87
2018-08-11T09:23:31.754Z,99481.98
2018-08-11T09:26:36.729Z,99473.08
2018-08-11T09:29:41.715Z,99469.76
2018-08-11T09:32:46.699Z,99473.85
2018-08-11T09:35:51.703Z,99468.69
2018-08-11T09:38:56.722Z,99471.12
2018-08-11T09:42:01.726Z,99483.29
2018-08-11T09:49:06.122Z,99477.66
2018-08-11T09:52:11.169Z,99480.50
2018-08-11T09:55:16.117Z,99481.19
2018-08-11T09:58:21.154Z,99481.50
2018-08-11T10:01:31.758Z,99467.09
2018-08-11T10:04:36.747Z,99466.09
2018-08-11T10:07:41.854Z,99464.23
2018-08-11T10:10:47.974Z,99454.36
2018-08-11T10:13:52.990Z,99446.49
2018-08-11T10:16:57.955Z,99445.03
2018-08-11T10:20:03.168Z,99438.13
2018-08-11T10:23:08.141Z,99434.28
2018-08-11T10:26:13.121Z,99428.87
2018-08-11T10:29:18.097Z,99438.66
2018-08-11T10:32:23.085Z,99434.42
2018-08-11T10:35:28.063Z,99440.97
2018-08-11T10:38:33.053Z,99445.69
2018-08-11T10:41:38.634Z,99439.66
2018-08-11T10:44:43.760Z,99434.89
2018-08-11T10:47:48.772Z,99439.01
2018-08-11T10:50:53.856Z,99430.83
2018-08-11T10:53:58.993Z,99420.45
2018-08-11T10:57:04.285Z,99424.52
2018-08-11T11:00:09.517Z,99430.13
2018-08-11T11:03:14.631Z,99444.42
2018-08-11T11:06:19.692Z,99437.64
2018-08-11T11:09:24.925Z,99442.89
2018-08-11T11:12:30.933Z,99438.78
2018-08-11T11:15:36.002Z,99427.80
2018-08-11T11:18:41.099Z,99425.16
2018-08-11T11:21:46.065Z,99417.64
2018-08-11T11:24:51.082Z,99425.73
2018-08-11T11:27:56.090Z,99421.53
2018-08-11T11:31:01.075Z,99421.53
2018-08-11T11:34:06.055Z,99423.66
2018-08-11T11:37:11.084Z,99409.93
2018-08-11T11:40:16.043Z,99411.02
2018-08-11T11:43:21.076Z,99399.98
2018-08-11T11:46:26.054Z,99395.96
2018-08-11T11:49:31.021Z,99389.41
2018-08-11T11:56:19.320Z,99387.14
2018-08-11T11:59:24.364Z,99391.62
2018-08-11T12:02:29.381Z,99385.84
2018-08-11T12:05:34.430Z,99395.01
2018-08-11T12:08:39.398Z,99396.16
2018-08-11T12:11:44.389Z,99395.27
2018-08-11T12:14:49.442Z,99399.83
2018-08-11T12:17:54.457Z,99397.63
2018-08-11T12:20:59.454Z,99402.14
2018-08-11T12:24:04.450Z,99393.99
2018-08-11T12:27:09.454Z,99390.45
2018-08-11T12:30:14.449Z,99390.91
2018-08-11T12:33:19.437Z,99390.89
2018-08-11T12:36:24.439Z,99397.38
2018-08-11T12:39:29.425Z,99394.06
2018-08-11T12:42:34.407Z,99382.47
2018-08-11T12:45:39.445Z,99374.73
2018-08-11T12:48:44.361Z,99375.92
2018-08-11T12:51:49.357Z,99372.41
2018-08-11T12:54:54.395Z,99383.10
2018-08-11T12:57:59.366Z,99394.27
2018-08-11T13:01:04.357Z,99391.17
2018-08-11T13:04:09.355Z,99389.94
2018-08-11T13:07:14.342Z,99387.56
2018-08-11T13:10:19.378Z,99385.51
2018-08-11T13:13:24.364Z,99370.81
2018-08-11T13:16:29.358Z,99370.49
2018-08-11T13:19:34.348Z,99375.40
2018-08-11T13:22:39.323Z,99375.28
2018-08-11T13:25:44.359Z,99376.84
2018-08-11T13:28:49.326Z,99364.38
2018-08-11T13:31:54.321Z,99374.48
2018-08-11T13:34:59.302Z,99370.44
2018-08-11T13:38:04.281Z,99367.24
2018-08-11T13:41:09.290Z,99369.05
2018-08-11T13:44:15.460Z,99369.17
2018-08-11T13:47:20.457Z,99369.55
2018-08-11T13:50:25.449Z,99372.58
2018-08-11T13:53:30.409Z,99360.18
2018-08-11T13:56:36.028Z,99367.78
2018-08-11T13:59:41.039Z,99355.14
2018-08-11T14:02:47.127Z,99347.20
2018-08-11T14:05:52.117Z,99351.64
2018-08-11T14:08:57.101Z,99362.55
2018-08-11T14:12:02.104Z,99360.44
2018-08-11T14:15:07.507Z,99357.02
2018-08-11T14:18:12.474Z,99352.48
2018-08-11T14:21:17.465Z,99347.06
2018-08-11T14:24:22.440Z,99337.90
2018-08-11T14:27:27.431Z,99348.73
2018-08-11T14:30:32.414Z,99346.53
2018-08-11T14:33:37.403Z,99346.10
2018-08-11T14:36:42.394Z,99336.84
2018-08-11T14:39:47.392Z,99337.83
2018-08-11T14:42:52.371Z,99334.98
2018-08-11T14:45:57.374Z,99338.09
2018-08-11T14:49:02.355Z,99330.15
2018-08-11T14:52:07.352Z,99325.16
2018-08-11T14:55:12.355Z,99328.45
2018-08-11T14:58:17.325Z,99316.58
2018-08-11T15:01:22.313Z,99319.20
2018-08-11T15:04:27.298Z,99318.59
2018-08-11T15:07:32.273Z,99314.87
2018-08-11T15:10:37.273Z,99318.25
2018-08-11T15:13:42.246Z,99319.30
2018-08-11T15:16:47.227Z,99303.30
2018-08-11T15:19:52.492Z,99301.25
2018-08-11T15:22:57.477Z,99301.52
2018-08-11T15:26:02.464Z,99299.19
2018-08-11T15:29:07.755Z,99292.82
2018-08-11T15:32:12.770Z,99295.95
2018-08-11T15:35:17.764Z,99297.58
2018-08-11T15:38:22.746Z,99308.39
2018-08-11T15:41:27.740Z,99291.94
2018-08-11T15:44:32.730Z,99305.20
2018-08-11T15:47:37.716Z,99297.82
2018-08-11T15:50:42.689Z,99295.69
2018-08-11T15:53:47.674Z,99292.30
2018-08-11T15:56:52.738Z,99293.77
2018-08-11T15:59:57.729Z,99299.58
2018-08-11T16:03:03.020Z,99302.20
2018-08-11T16:06:07.987Z,99298.08
2018-08-11T16:09:12.998Z,99297.26
2018-08-11T16:12:17.986Z,99297.19
2018-08-11T16:15:22.954Z,99299.91
2018-08-11T16:18:27.938Z,99293.46
2018-08-11T16:21:32.936Z,99287.02
2018-08-11T16:24:37.902Z,99298.03
2018-08-11T16:27:42.880Z,99285.50
2018-08-11T16:30:47.896Z,99294.98
2018-08-11T16:33:53.046Z,99292.58
2018-08-11T16:36:58.050Z,99295.11
2018-08-11T16:40:03.242Z,99288.02
2018-08-11T16:43:08.241Z,99290.03
2018-08-11T16:46:13.235Z,99292.92
2018-08-11T16:49:18.215Z,99286.40
2018-08-11T16:52:23.227Z,99285.89
2018-08-11T16:55:28.234Z,99279.89
2018-08-11T16:58:33.209Z,99278.09
2018-08-11T17:01:38.186Z,99277.42
2018-08-11T17:04:43.430Z,99282.37
2018-08-11T17:07:48.445Z,99278.34
2018-08-11T17:10:53.437Z,99283.07
2018-08-11T17:13:58.402Z,99287.52
2018-08-11T17:17:03.463Z,99284.44
2018-08-11T17:20:08.442Z,99282.68
2018-08-11T17:23:13.469Z,99280.56
2018-08-11T17:26:18.456Z,99283.16
2018-08-11T17:29:23.423Z,99284.31
2018-08-11T17:32:28.459Z,99283.11
2018-08-11T17:35:33.418Z,99276.25
2018-08-11T17:38:38.425Z,99281.12
2018-08-11T17:41:43.414Z,99281.45
2018-08-11T17:44:48.404Z,99279.55
2018-08-11T17:47:53.413Z,99285.10
2018-08-11T17:50:58.463Z,99288.33
2018-08-11T17:54:03.571Z,99286.77
2018-08-11T17:57:08.581Z,99283.55
2018-08-11T18:00:13.608Z,99283.58
2018-08-11T18:03:18.702Z,99289.81
2018-08-11T18:06:23.718Z,99287.99
2018-08-11T18:09:28.762Z,99290.45
2018-08-11T18:12:33.765Z,99287.77
2018-08-11T18:15:38.758Z,99282.70
2018-08-11T18:18:43.758Z,99288.38
2018-08-11T18:21:48.732Z,99294.59
2018-08-11T18:24:53.705Z,99295.49
2018-08-11T18:27:58.691Z,99305.48
2018-08-11T18:31:03.706Z,99305.48
2018-08-11T18:34:08.687Z,99305.38
2018-08-11T18:37:13.661Z,99306.21
2018-08-11T18:40:18.657Z,99304.89
2018-08-11T18:43:23.685Z,99302.11
2018-08-11T18:46:28.643Z,99312.46
2018-08-11T18:49:33.665Z,99312.64
2018-08-11T18:52:38.675Z,99316.57
2018-08-11T18:55:43.738Z,99316.66
2018-08-11T18:58:48.744Z,99320.36
2018-08-11T19:01:53.771Z,99324.59
2018-08-11T19:04:58.852Z,99324.82
2018-08-11T19:08:03.892Z,99329.65
2018-08-11T19:11:08.901Z,99336.14
2018-08-11T19:14:13.910Z,99333.97
2018-08-11T19:17:18.954Z,99340.30
2018-08-11T19:20:24.011Z,99340.94
2018-08-11T19:23:29.063Z,99343.63
2018-08-11T19:26:34.109Z,99356.48
2018-08-11T19:29:39.101Z,99356.64
2018-08-11T19:32:44.197Z,99353.42
2018-08-11T19:35:49.165Z,99360.67
2018-08-11T19:38:54.199Z,99359.38
2018-08-11T19:41:59.219Z,99359.41
2018-08-11T19:45:06.466Z,99357.58
2018-08-11T19:48:11.509Z,99362.41
2018-08-11T19:51:16.550Z,99357.65
2018-08-11T19:54:21.611Z,99355.17
2018-08-11T19:57:26.655Z,99364.92
2018-08-11T20:00:31.677Z,99361.00
2018-08-11T20:03:36.684Z,99363.97
2018-08-11T20:06:42.360Z,99369.22
2018-08-11T20:09:47.379Z,99367.11
2018-08-11T20:12:52.383Z,99373.68
2018-08-11T20:15:57.381Z,99374.14
2018-08-11T20:19:02.410Z,99369.88
2018-08-11T20:22:14.260Z,99369.45
2018-08-11T20:25:19.406Z,99372.47
2018-08-11T20:28:24.310Z,99367.58
2018-08-11T20:31:29.349Z,99366.98
2018-08-11T20:34:34.340Z,99367.81
2018-08-11T20:37:39.337Z,99372.72
2018-08-11T20:40:44.329Z,99367.55
2018-08-11T20:43:49.339Z,99371.42
2018-08-11T20:46:54.425Z,99372.72
2018-08-11T20:49:59.421Z,99368.89
2018-08-11T20:53:04.445Z,99366.11
2018-08-11T20:56:09.474Z,99365.70
2018-08-11T20:59:14.458Z,99372.57
2018-08-11T21:02:19.480Z,99365.98
2018-08-11T21:05:24.452Z,99361.22
2018-08-11T21:08:29.457Z,99364.76
2018-08-11T21:11:34.466Z,99365.13
2018-08-11T21:14:39.430Z,99359.88
2018-08-11T21:17:44.424Z,99362.25
2018-08-11T21:20:49.425Z,99360.07
2018-08-11T21:23:54.480Z,99360.24
2018-08-11T21:26:59.448Z,99358.73
2018-08-11T21:30:06.637Z,99360.13
2018-08-11T21:33:11.639Z,99354.86
2018-08-11T21:36:16.649Z,99359.97
2018-08-11T21:39:21.605Z,99361.94
2018-08-11T21:42:26.588Z,99363.42
2018-08-11T21:45:31.565Z,99364.19
2018-08-11T21:48:36.548Z,99360.98
2018-08-11T21:51:41.551Z,99368.77
2018-08-11T21:54:46.583Z,99369.63
2018-08-11T21:57:51.603Z,99369.13
2018-08-11T22:05:05.817Z,99367.90
2018-08-11T22:08:10.803Z,99366.42
2018-08-11T22:11:15.830Z,99353.59
2018-08-11T22:14:20.867Z,99354.14
2018-08-11T22:17:25.822Z,99353.45
2018-08-11T22:20:30.815Z,99351.12
2018-08-11T22:23:35.825Z,99342.84
2018-08-11T22:26:40.829Z,99340.38
2018-08-11T22:29:45.837Z,99336.42
2018-08-11T22:32:50.878Z,99340.09
2018-08-11T22:35:55.966Z,99339.78
2018-08-11T22:39:00.917Z,99332.80
2018-08-11T22:42:05.954Z,99339.95
2018-08-11T22:45:11.637Z,99338.73
2018-08-11T22:48:16.628Z,99335.42
2018-08-11T22:51:21.621Z,99334.62
2018-08-11T22:54:26.632Z,99332.97
2018-08-11T22:57:31.651Z,99330.98
2018-08-11T23:00:36.651Z,99331.31
2018-08-11T23:03:41.656Z,99326.72
2018-08-11T23:06:46.673Z,99332.77
2018-08-11T23:09:51.634Z,99325.47
2018-08-11T23:12:56.661Z,99318.66
2018-08-11T23:16:01.667Z,99321.20
2018-08-11T23:19:06.670Z,99324.79
2018-08-11T23:22:11.677Z,99324.73
2018-08-11T23:25:16.697Z,99317.42
2018-08-11T23:28:21.676Z,99314.08
2018-08-11T23:31:26.670Z,99313.68
2018-08-11T23:34:31.660Z,99313.06
2018-08-11T23:37:36.706Z,99309.38
2018-08-11T23:40:41.729Z,99312.23
2018-08-11T23:43:46.770Z,99304.61
2018-08-11T23:46:51.758Z,99304.50
2018-08-11T23:49:56.754Z,99306.74
2018-08-11T23:53:01.752Z,99305.52
2018-08-11T23:56:06.785Z,99300.48
2018-08-11T23:59:11.756Z,99303.42
